createdAt,value
2018-01-25T00:01:46.337Z,97654.69
2018-01-25T00:04:14.673Z,97653.55
2018-01-25T00:06:43.013Z,97653.94
2018-01-25T00:09:11.363Z,97647.48
2018-01-25T00:11:39.717Z,97643.58
2018-01-25T00:14:08.042Z,97632.56
2018-01-25T00:16:36.352Z,97638.53
2018-01-25T00:19:04.701Z,97639.27
2018-01-25T00:21:34.219Z,97641.05
2018-01-25T00:24:02.562Z,97647.92
2018-01-25T00:26:30.930Z,97647.41
2018-01-25T00:28:59.247Z,97650.48
2018-01-25T00:31:27.571Z,97648.71
2018-01-25T00:33:55.884Z,97648.66
2018-01-25T00:36:24.231Z,97645.29
2018-01-25T00:38:52.552Z,97645.56
2018-01-25T00:41:20.892Z,97636.26
2018-01-25T00:43:49.242Z,97640.03
2018-01-25T00:46:18.337Z,97645.94
2018-01-25T00:48:46.663Z,97649.05
2018-01-25T00:51:15.020Z,97649.83
2018-01-25T00:53:43.409Z,97651.95
2018-01-25T00:56:11.729Z,97652.45
2018-01-25T00:58:40.062Z,97647.76
2018-01-25T01:01:08.392Z,97645.27
2018-01-25T01:03:37.338Z,97646.16
2018-01-25T01:06:05.667Z,97644.58
2018-01-25T01:08:34.016Z,97649.91
2018-01-25T01:11:02.360Z,97640.63
2018-01-25T01:13:30.695Z,97640.17
2018-01-25T01:15:59.798Z,97642.72
2018-01-25T01:18:28.138Z,97639.42
2018-01-25T01:20:56.449Z,97641.02
2018-01-25T01:23:24.772Z,97641.55
2018-01-25T01:25:53.098Z,97649.74
2018-01-25T01:28:21.452Z,97645.92
2018-01-25T01:30:49.830Z,97645.83
2018-01-25T01:33:18.175Z,97648.87
2018-01-25T01:35:46.524Z,97647.67
2018-01-25T01:38:14.858Z,97642.11
2018-01-25T01:40:43.205Z,97645.11
2018-01-25T01:43:11.537Z,97639.17
2018-01-25T01:45:39.893Z,97643.89
2018-01-25T01:48:08.239Z,97642.52
2018-01-25T01:50:36.566Z,97644.53
2018-01-25T01:53:04.929Z,97642.00
2018-01-25T01:55:33.266Z,97638.97
2018-01-25T01:58:01.609Z,97635.14
2018-01-25T02:00:29.972Z,97642.86
2018-01-25T02:02:58.310Z,97647.66
2018-01-25T02:05:26.643Z,97648.91
2018-01-25T02:07:55.758Z,97644.21
2018-01-25T02:10:24.104Z,97641.21
2018-01-25T02:12:52.796Z,97625.90
2018-01-25T02:15:21.148Z,97633.57
2018-01-25T02:17:49.508Z,97636.89
2018-01-25T02:20:17.843Z,97633.36
2018-01-25T02:22:47.734Z,97629.27
2018-01-25T02:25:16.086Z,97624.06
2018-01-25T02:27:44.432Z,97631.28
2018-01-25T02:30:12.786Z,97631.31
2018-01-25T02:32:41.131Z,97634.78
2018-01-25T02:35:09.478Z,97636.10
2018-01-25T02:37:37.835Z,97639.14
2018-01-25T02:40:06.165Z,97637.44
2018-01-25T02:42:34.527Z,97634.88
2018-01-25T02:45:02.893Z,97645.91
2018-01-25T02:47:31.244Z,97639.13
2018-01-25T02:50:00.364Z,97631.86
2018-01-25T02:52:28.717Z,97628.53
2018-01-25T02:54:57.056Z,97629.77
2018-01-25T02:57:25.409Z,97629.83
2018-01-25T02:59:53.735Z,97637.89
2018-01-25T03:02:22.857Z,97638.54
2018-01-25T03:04:51.189Z,97636.37
2018-01-25T03:07:19.559Z,97643.48
2018-01-25T03:09:47.916Z,97642.73
2018-01-25T03:12:16.286Z,97638.54
2018-01-25T03:14:44.628Z,97640.65
2018-01-25T03:17:13.735Z,97641.69
2018-01-25T03:19:42.084Z,97647.61
2018-01-25T03:22:10.441Z,97650.55
2018-01-25T03:24:39.926Z,97651.84
2018-01-25T03:27:09.058Z,97650.14
2018-01-25T03:29:37.899Z,97649.81
2018-01-25T03:32:06.226Z,97651.92
2018-01-25T03:34:34.562Z,97655.38
2018-01-25T03:37:02.906Z,97649.33
2018-01-25T03:39:32.034Z,97657.92
2018-01-25T03:42:00.358Z,97654.59
2018-01-25T03:44:28.696Z,97648.11
2018-01-25T03:46:57.044Z,97652.80
2018-01-25T03:49:25.759Z,97656.55
2018-01-25T03:51:54.094Z,97660.50
2018-01-25T03:54:22.432Z,97659.14
2018-01-25T03:56:50.780Z,97653.93
2018-01-25T03:59:19.116Z,97654.00
2018-01-25T04:01:47.454Z,97656.14
2018-01-25T04:04:15.805Z,97656.32
2018-01-25T04:06:44.134Z,97658.96
2018-01-25T04:09:12.472Z,97660.59
2018-01-25T04:11:40.814Z,97664.51
2018-01-25T04:14:09.157Z,97663.05
2018-01-25T04:16:37.511Z,97667.41
2018-01-25T04:19:05.825Z,97671.80
2018-01-25T04:21:34.705Z,97665.38
2018-01-25T04:24:04.069Z,97676.84
2018-01-25T04:26:32.402Z,97673.05
2018-01-25T04:29:00.754Z,97670.05
2018-01-25T04:31:29.085Z,97682.41
2018-01-25T04:33:58.197Z,97676.36
2018-01-25T04:36:26.533Z,97679.39
2018-01-25T04:38:54.874Z,97672.62
2018-01-25T04:41:23.215Z,97678.15
2018-01-25T04:43:51.565Z,97673.91
2018-01-25T04:46:19.890Z,97665.86
2018-01-25T04:48:48.238Z,97665.34
2018-01-25T04:51:16.576Z,97656.32
2018-01-25T04:53:44.911Z,97643.88
2018-01-25T04:56:13.242Z,97653.17
2018-01-25T04:58:41.662Z,97648.88
2018-01-25T05:01:09.987Z,97650.72
2018-01-25T05:03:38.334Z,97653.61
2018-01-25T05:06:06.680Z,97646.65
2018-01-25T05:08:35.018Z,97644.54
2018-01-25T05:11:03.367Z,97641.90
2018-01-25T05:13:31.746Z,97651.34
2018-01-25T05:16:00.089Z,97649.00
2018-01-25T05:18:29.806Z,97646.83
2018-01-25T05:20:58.130Z,97645.70
2018-01-25T05:23:26.711Z,97657.35
2018-01-25T05:25:55.061Z,97657.59
2018-01-25T05:28:23.405Z,97658.80
2018-01-25T05:30:51.800Z,97660.44
2018-01-25T05:33:20.897Z,97667.30
2018-01-25T05:35:50.802Z,97670.72
2018-01-25T05:38:19.133Z,97672.42
2018-01-25T05:40:47.468Z,97673.67
2018-01-25T05:43:15.821Z,97677.47
2018-01-25T05:45:44.178Z,97680.36
2018-01-25T05:48:12.534Z,97679.33
2018-01-25T05:50:40.870Z,97681.55
2018-01-25T05:53:09.206Z,97678.48
2018-01-25T05:55:37.560Z,97681.84
2018-01-25T05:58:05.912Z,97681.89
2018-01-25T06:00:35.070Z,97685.81
2018-01-25T06:03:03.410Z,97691.94
2018-01-25T06:05:31.741Z,97697.47
2018-01-25T06:08:00.101Z,97699.30
2018-01-25T06:10:28.439Z,97702.41
2018-01-25T06:12:56.779Z,97732.30
2018-01-25T06:15:25.112Z,97743.08
2018-01-25T06:17:53.451Z,97730.19
2018-01-25T06:20:21.802Z,97738.27
2018-01-25T06:22:50.252Z,97732.06
2018-01-25T06:25:18.657Z,97742.52
2018-01-25T06:27:46.992Z,97733.48
2018-01-25T06:30:15.319Z,97731.41
2018-01-25T06:32:43.644Z,97731.42
2018-01-25T06:35:11.966Z,97728.09
2018-01-25T06:37:40.320Z,97732.63
2018-01-25T06:40:09.040Z,97745.30
2018-01-25T06:42:37.428Z,97754.30
2018-01-25T06:45:05.769Z,97756.88
2018-01-25T06:47:34.128Z,97755.19
2018-01-25T06:50:02.682Z,97752.11
2018-01-25T06:52:31.020Z,97750.36
2018-01-25T06:54:59.356Z,97747.28
2018-01-25T06:57:27.688Z,97740.91
2018-01-25T06:59:56.022Z,97735.77
2018-01-25T07:02:24.366Z,97737.47
2018-01-25T07:04:53.484Z,97739.79
2018-01-25T07:07:21.828Z,97748.33
2018-01-25T07:09:50.158Z,97748.06
2018-01-25T07:12:18.504Z,97744.17
2018-01-25T07:14:46.831Z,97748.12
2018-01-25T07:17:15.184Z,97754.45
2018-01-25T07:19:43.532Z,97754.04
2018-01-25T07:22:11.896Z,97762.91
2018-01-25T07:24:40.272Z,97764.19
2018-01-25T07:27:08.618Z,97765.47
2018-01-25T07:29:37.532Z,97764.64
2018-01-25T07:32:05.885Z,97770.36
2018-01-25T07:34:34.351Z,97776.77
2018-01-25T07:37:02.760Z,97772.45
2018-01-25T07:39:31.071Z,97776.72
2018-01-25T07:42:00.155Z,97782.30
2018-01-25T07:44:28.472Z,97779.27
2018-01-25T07:46:56.778Z,97784.42
2018-01-25T07:49:25.093Z,97777.58
2018-01-25T07:51:53.844Z,97782.25
2018-01-25T07:54:24.116Z,97778.85
2018-01-25T07:56:52.452Z,97775.79
2018-01-25T07:59:20.785Z,97783.00
2018-01-25T08:01:49.138Z,97788.05
2018-01-25T08:04:18.246Z,97787.55
2018-01-25T08:06:46.581Z,97789.70
2018-01-25T08:09:14.929Z,97784.34
2018-01-25T08:11:43.268Z,97779.52
2018-01-25T08:14:12.362Z,97769.61
2018-01-25T08:16:46.220Z,97770.78
2018-01-25T08:19:14.550Z,97773.77
2018-01-25T08:21:42.918Z,97775.19
2018-01-25T08:24:12.010Z,97774.94
2018-01-25T08:26:40.661Z,97778.27
2018-01-25T08:29:08.984Z,97776.55
2018-01-25T08:31:38.379Z,97779.15
2018-01-25T08:34:06.714Z,97788.36
2018-01-25T08:36:35.062Z,97782.55
2018-01-25T08:39:03.396Z,97778.34
2018-01-25T08:41:33.226Z,97775.52
2018-01-25T08:44:00.370Z,97766.92
2018-01-25T08:46:28.690Z,97767.00
2018-01-25T08:48:57.007Z,97775.23
2018-01-25T08:51:25.358Z,97769.73
2018-01-25T08:53:53.718Z,97768.41
2018-01-25T08:56:22.045Z,97776.05
2018-01-25T08:58:50.388Z,97774.33
2018-01-25T09:01:18.720Z,97768.95
2018-01-25T09:03:47.828Z,97768.91
2018-01-25T09:06:16.156Z,97768.45
2018-01-25T09:08:44.478Z,97763.25
2018-01-25T09:11:12.792Z,97762.02
2018-01-25T09:13:41.141Z,97778.73
2018-01-25T09:16:09.471Z,97790.69
2018-01-25T09:18:37.794Z,97790.20
2018-01-25T09:21:06.140Z,97792.33
2018-01-25T09:23:35.524Z,97806.48
2018-01-25T09:26:03.862Z,97798.38
2018-01-25T09:28:32.837Z,97811.97
2018-01-25T09:31:01.200Z,97814.95
2018-01-25T09:33:30.286Z,97819.69
2018-01-25T09:35:59.460Z,97823.07
2018-01-25T09:38:27.773Z,97824.75
2018-01-25T09:40:56.104Z,97821.77
2018-01-25T09:43:24.484Z,97819.98
2018-01-25T09:45:52.771Z,97825.46
2018-01-25T09:48:21.120Z,97835.31
2018-01-25T09:50:49.459Z,97838.63
2018-01-25T09:53:18.572Z,97842.47
2018-01-25T09:55:46.908Z,97839.81
2018-01-25T09:58:15.249Z,97830.29
2018-01-25T10:00:43.595Z,97837.41
2018-01-25T10:03:12.692Z,97835.19
2018-01-25T10:05:41.019Z,97830.03
2018-01-25T10:08:10.051Z,97831.30
2018-01-25T10:10:38.387Z,97829.50
2018-01-25T10:13:07.393Z,97828.16
2018-01-25T10:15:35.738Z,97839.28
2018-01-25T10:18:04.085Z,97835.80
2018-01-25T10:20:33.183Z,97834.47
2018-01-25T10:23:01.522Z,97825.06
2018-01-25T10:25:29.870Z,97829.21
2018-01-25T10:27:58.212Z,97835.67
2018-01-25T10:30:27.317Z,97831.00
2018-01-25T10:32:55.661Z,97832.72
2018-01-25T10:35:24.075Z,97833.97
2018-01-25T10:37:52.402Z,97825.03
2018-01-25T10:40:20.752Z,97822.48
2018-01-25T10:42:49.101Z,97819.06
2018-01-25T10:45:18.192Z,97813.84
2018-01-25T10:47:47.319Z,97820.25
2018-01-25T10:50:15.669Z,97812.55
2018-01-25T10:52:44.002Z,97810.08
2018-01-25T10:55:13.141Z,97808.03
2018-01-25T10:57:43.188Z,97812.39
2018-01-25T11:00:12.502Z,97798.58
2018-01-25T11:02:40.862Z,97794.62
2018-01-25T11:05:09.224Z,97788.99
2018-01-25T11:07:38.407Z,97793.65
2018-01-25T11:10:07.502Z,97791.10
2018-01-25T11:12:36.501Z,97794.62
2018-01-25T11:15:04.849Z,97798.52
2018-01-25T11:17:33.214Z,97794.66
2018-01-25T11:20:01.556Z,97793.67
2018-01-25T11:22:29.902Z,97792.45
2018-01-25T11:24:59.005Z,97795.94
2018-01-25T11:27:28.836Z,97785.19
2018-01-25T11:29:59.966Z,97784.27
2018-01-25T11:32:29.061Z,97783.02
2018-01-25T11:34:57.391Z,97779.67
2018-01-25T11:37:25.747Z,97778.31
2018-01-25T11:39:54.109Z,97779.47
2018-01-25T11:42:22.484Z,97776.23
2018-01-25T11:44:50.806Z,97779.22
2018-01-25T11:47:19.157Z,97783.95
2018-01-25T11:49:47.478Z,97773.10
2018-01-25T11:52:15.819Z,97776.03
2018-01-25T11:54:44.169Z,97769.14
2018-01-25T11:57:12.517Z,97770.84
2018-01-25T11:59:41.625Z,97763.89
2018-01-25T12:02:10.742Z,97754.97
2018-01-25T12:04:39.073Z,97758.65
2018-01-25T12:07:08.184Z,97752.86
2018-01-25T12:09:36.526Z,97754.06
2018-01-25T12:12:04.882Z,97738.63
2018-01-25T12:14:33.241Z,97741.49
2018-01-25T12:17:01.567Z,97747.07
2018-01-25T12:19:29.894Z,97739.58
2018-01-25T12:21:58.289Z,97735.23
2018-01-25T12:24:26.581Z,97744.97
2018-01-25T12:26:54.922Z,97745.77
2018-01-25T12:29:23.269Z,97746.51
2018-01-25T12:31:51.604Z,97746.14
2018-01-25T12:34:19.973Z,97736.48
2018-01-25T12:36:48.310Z,97732.16
2018-01-25T12:39:16.639Z,97733.33
2018-01-25T12:41:44.991Z,97731.94
2018-01-25T12:44:13.328Z,97728.80
2018-01-25T12:46:41.670Z,97714.36
2018-01-25T12:49:10.015Z,97696.78
2018-01-25T12:51:38.347Z,97697.98
2018-01-25T12:54:06.671Z,97689.45
2018-01-25T12:56:35.782Z,97685.81
2018-01-25T12:59:04.388Z,97676.93
2018-01-25T13:01:32.720Z,97676.80
2018-01-25T13:04:01.823Z,97682.36
2018-01-25T13:06:30.714Z,97684.66
2018-01-25T13:08:59.842Z,97678.14
2018-01-25T13:11:28.189Z,97669.19
2018-01-25T13:13:56.766Z,97668.88
2018-01-25T13:16:25.882Z,97667.55
2018-01-25T13:18:54.215Z,97667.35
2018-01-25T13:21:22.555Z,97653.70
2018-01-25T13:23:50.895Z,97652.63
2018-01-25T13:26:20.006Z,97652.06
2018-01-25T13:28:48.367Z,97644.19
2018-01-25T13:31:17.850Z,97652.66
2018-01-25T13:33:46.186Z,97658.79
2018-01-25T13:36:14.531Z,97658.22
2018-01-25T13:38:43.634Z,97654.02
2018-01-25T13:41:12.264Z,97655.54
2018-01-25T13:43:41.581Z,97645.57
2018-01-25T13:46:09.955Z,97644.30
2018-01-25T13:48:38.304Z,97642.20
2018-01-25T13:51:06.639Z,97644.88
2018-01-25T13:53:34.980Z,97645.78
2018-01-25T13:56:03.310Z,97646.56
2018-01-25T13:58:31.671Z,97650.72
2018-01-25T14:01:00.009Z,97648.61
2018-01-25T14:03:28.342Z,97649.55
2018-01-25T14:05:57.457Z,97647.61
2018-01-25T14:08:25.791Z,97642.56
2018-01-25T14:10:54.122Z,97647.55
2018-01-25T14:13:22.460Z,97642.52
2018-01-25T14:15:51.595Z,97644.86
2018-01-25T14:18:20.008Z,97650.03
2018-01-25T14:20:48.346Z,97645.09
2018-01-25T14:23:16.695Z,97645.44
2018-01-25T14:25:45.041Z,97642.05
2018-01-25T14:28:13.382Z,97645.87
2018-01-25T14:30:41.731Z,97643.59
2018-01-25T14:33:10.063Z,97638.98
2018-01-25T14:35:38.395Z,97648.44
2018-01-25T14:38:06.741Z,97649.73
2018-01-25T14:40:35.076Z,97643.47
2018-01-25T14:43:03.416Z,97643.42
2018-01-25T14:45:32.501Z,97651.41
2018-01-25T14:48:00.843Z,97652.25
2018-01-25T14:50:29.205Z,97654.98
2018-01-25T14:52:57.538Z,97652.45
2018-01-25T14:55:25.878Z,97650.29
2018-01-25T14:57:54.227Z,97651.11
2018-01-25T15:00:22.578Z,97649.70
2018-01-25T15:02:51.707Z,97652.63
2018-01-25T15:05:20.052Z,97651.73
2018-01-25T15:07:48.398Z,97655.62
2018-01-25T15:10:16.738Z,97646.56
2018-01-25T15:12:45.075Z,97653.48
2018-01-25T15:15:14.156Z,97652.28
2018-01-25T15:17:42.494Z,97645.95
2018-01-25T15:20:10.827Z,97646.94
2018-01-25T15:22:41.073Z,97643.03
2018-01-25T15:25:14.943Z,97648.04
2018-01-25T15:27:43.279Z,97647.23
2018-01-25T15:30:11.611Z,97637.08
2018-01-25T15:32:39.960Z,97646.41
2018-01-25T15:35:08.281Z,97643.97
2018-01-25T15:37:37.370Z,97640.05
2018-01-25T15:40:05.709Z,97638.78
2018-01-25T15:42:34.776Z,97634.55
2018-01-25T15:45:03.127Z,97635.78
2018-01-25T15:47:31.482Z,97638.45
2018-01-25T15:49:59.826Z,97638.56
2018-01-25T15:52:28.230Z,97641.05
2018-01-25T15:54:56.571Z,97641.44
2018-01-25T15:57:25.425Z,97636.07
2018-01-25T15:59:54.531Z,97636.37
2018-01-25T16:02:22.872Z,97629.91
2018-01-25T16:04:51.205Z,97631.47
2018-01-25T16:07:19.551Z,97634.64
2018-01-25T16:09:48.660Z,97633.78
2018-01-25T16:12:16.980Z,97640.34
2018-01-25T16:14:45.511Z,97630.16
2018-01-25T16:17:14.603Z,97635.16
2018-01-25T16:19:43.695Z,97631.09
2018-01-25T16:22:12.042Z,97631.70
2018-01-25T16:24:40.374Z,97633.72
2018-01-25T16:27:08.728Z,97644.30
2018-01-25T16:29:37.824Z,97643.05
2018-01-25T16:32:06.188Z,97644.48
2018-01-25T16:34:34.527Z,97643.76
2018-01-25T16:37:02.877Z,97650.61
2018-01-25T16:39:31.624Z,97644.70
2018-01-25T16:41:59.972Z,97645.52
2018-01-25T16:44:28.335Z,97638.00
2018-01-25T16:46:56.878Z,97650.34
2018-01-25T16:49:25.269Z,97644.72
2018-01-25T16:51:53.756Z,97650.81
2018-01-25T16:54:22.219Z,97651.66
2018-01-25T16:56:50.643Z,97645.16
2018-01-25T16:59:18.981Z,97654.53
2018-01-25T17:01:48.186Z,97643.31
2018-01-25T17:04:16.573Z,97642.33
2018-01-25T17:06:45.737Z,97645.70
2018-01-25T17:09:14.160Z,97638.46
2018-01-25T17:11:42.550Z,97644.52
2018-01-25T17:14:11.248Z,97649.77
2018-01-25T17:16:42.571Z,97643.59
2018-01-25T17:19:16.855Z,97649.47
2018-01-25T17:21:45.460Z,97645.98
2018-01-25T17:24:14.808Z,97643.83
2018-01-25T17:26:44.025Z,97642.14
2018-01-25T17:29:13.514Z,97646.27
2018-01-25T17:31:44.525Z,97645.02
2018-01-25T17:34:14.783Z,97646.56
2018-01-25T17:36:44.486Z,97644.38
2018-01-25T17:39:15.193Z,97648.56
2018-01-25T17:41:45.066Z,97645.08
2018-01-25T17:44:14.769Z,97647.47
2018-01-25T17:46:44.421Z,97652.22
2018-01-25T17:49:14.986Z,97654.33
2018-01-25T17:51:44.804Z,97659.06
2018-01-25T17:54:14.582Z,97651.73
2018-01-25T17:56:45.204Z,97648.30
2018-01-25T17:59:14.951Z,97653.94
2018-01-25T18:01:44.800Z,97649.14
2018-01-25T18:04:15.473Z,97652.48
2018-01-25T18:06:45.394Z,97655.97
2018-01-25T18:09:15.342Z,97656.33
2018-01-25T18:11:45.416Z,97657.16
2018-01-25T18:14:15.294Z,97662.26
2018-01-25T18:16:45.904Z,97654.70
2018-01-25T18:19:15.845Z,97665.36
2018-01-25T18:21:45.782Z,97667.02
2018-01-25T18:24:16.051Z,97663.98
2018-01-25T18:26:45.975Z,97672.06
2018-01-25T18:29:16.111Z,97663.20
2018-01-25T18:31:46.983Z,97661.94
2018-01-25T18:34:17.007Z,97667.12
2018-01-25T18:36:48.035Z,97668.45
2018-01-25T18:39:17.965Z,97665.41
2018-01-25T18:41:47.930Z,97666.44
2018-01-25T18:44:17.913Z,97666.11
2018-01-25T18:46:47.895Z,97666.09
2018-01-25T18:49:17.900Z,97663.52
2018-01-25T18:51:48.528Z,97657.86
2018-01-25T18:54:18.433Z,97662.58
2018-01-25T18:56:48.886Z,97661.70
2018-01-25T18:59:19.715Z,97668.45
2018-01-25T19:01:49.604Z,97671.02
2018-01-25T19:04:19.468Z,97676.70
2018-01-25T19:06:49.282Z,97677.80
2018-01-25T19:09:19.183Z,97676.00
2018-01-25T19:11:49.559Z,97680.38
2018-01-25T19:14:19.464Z,97671.81
2018-01-25T19:16:50.016Z,97676.09
2018-01-25T19:19:19.984Z,97670.03
2018-01-25T19:21:49.916Z,97675.64
2018-01-25T19:24:20.977Z,97676.35
2018-01-25T19:26:51.331Z,97676.42
2018-01-25T19:29:21.245Z,97664.34
2018-01-25T19:31:52.328Z,97668.08
2018-01-25T19:34:22.307Z,97665.06
2018-01-25T19:36:52.318Z,97662.05
2018-01-25T19:39:23.040Z,97659.89
2018-01-25T19:41:52.950Z,97663.30
2018-01-25T19:44:23.036Z,97663.84
2018-01-25T19:46:56.966Z,97665.95
2018-01-25T19:49:26.899Z,97673.12
2018-01-25T19:51:56.836Z,97667.24
2018-01-25T19:54:26.823Z,97660.30
2018-01-25T19:56:56.778Z,97662.86
2018-01-25T19:59:28.418Z,97659.41
2018-01-25T20:01:58.362Z,97670.45
2018-01-25T20:04:28.396Z,97659.47
2018-01-25T20:06:58.319Z,97656.86
2018-01-25T20:09:28.257Z,97658.98
2018-01-25T20:11:58.197Z,97666.80
2018-01-25T20:14:28.244Z,97660.29
2018-01-25T20:16:58.301Z,97659.82
2018-01-25T20:19:29.611Z,97657.30
2018-01-25T20:21:59.545Z,97655.63
2018-01-25T20:24:29.600Z,97654.45
2018-01-25T20:27:00.391Z,97661.18
2018-01-25T20:29:30.340Z,97660.36
2018-01-25T20:32:01.069Z,97659.02
2018-01-25T20:34:31.054Z,97661.16
2018-01-25T20:37:00.958Z,97659.91
2018-01-25T20:39:30.980Z,97667.19
2018-01-25T20:42:01.742Z,97662.21
2018-01-25T20:44:31.663Z,97665.23
2018-01-25T20:47:01.569Z,97663.55
2018-01-25T20:49:31.520Z,97667.01
2018-01-25T20:52:02.215Z,97667.73
2018-01-25T20:54:32.815Z,97672.47
2018-01-25T20:57:03.681Z,97673.69
2018-01-25T20:59:33.616Z,97670.36
2018-01-25T21:02:04.297Z,97675.39
2018-01-25T21:04:34.140Z,97674.98
2018-01-25T21:07:04.593Z,97678.42
2018-01-25T21:09:34.537Z,97672.45
2018-01-25T21:12:04.649Z,97663.85
2018-01-25T21:14:34.620Z,97663.80
2018-01-25T21:17:04.586Z,97669.41
2018-01-25T21:19:34.454Z,97657.53
2018-01-25T21:22:04.481Z,97665.98
2018-01-25T21:24:35.352Z,97660.02
2018-01-25T21:27:05.280Z,97655.78
2018-01-25T21:29:35.234Z,97658.72
2018-01-25T21:32:06.015Z,97659.02
2018-01-25T21:34:36.793Z,97664.34
2018-01-25T21:37:07.799Z,97665.64
2018-01-25T21:39:37.861Z,97668.14
2018-01-25T21:42:08.505Z,97673.29
2018-01-25T21:44:39.413Z,97669.07
2018-01-25T21:47:09.316Z,97664.00
2018-01-25T21:49:39.957Z,97668.16
2018-01-25T21:52:09.827Z,97675.79
2018-01-25T21:54:40.501Z,97671.56
2018-01-25T21:57:10.335Z,97676.75
2018-01-25T21:59:40.233Z,97678.05
2018-01-25T22:02:10.174Z,97682.73
2018-01-25T22:04:40.027Z,97689.10
2018-01-25T22:07:09.858Z,97667.41
2018-01-25T22:09:39.629Z,97688.19
2018-01-25T22:12:09.507Z,97680.06
2018-01-25T22:14:40.232Z,97683.07
2018-01-25T22:17:10.087Z,97690.25
2018-01-25T22:19:39.839Z,97692.92
2018-01-25T22:22:09.476Z,97698.45
2018-01-25T22:24:38.753Z,97696.81
2018-01-25T22:27:07.257Z,97693.41
2018-01-25T22:29:35.816Z,97695.94
2018-01-25T22:32:04.223Z,97703.57
2018-01-25T22:34:33.331Z,97701.84
2018-01-25T22:37:02.445Z,97697.55
2018-01-25T22:39:30.807Z,97698.78
2018-01-25T22:41:59.139Z,97701.72
2018-01-25T22:44:27.458Z,97695.30
2018-01-25T22:46:55.798Z,97689.70
2018-01-25T22:49:24.136Z,97691.00
2018-01-25T22:51:52.481Z,97697.41
2018-01-25T22:54:21.570Z,97701.64
2018-01-25T22:56:49.904Z,97695.31
2018-01-25T22:59:18.240Z,97699.92
2018-01-25T23:01:47.411Z,97705.60
2018-01-25T23:04:15.734Z,97713.70
2018-01-25T23:06:44.079Z,97713.68
2018-01-25T23:09:12.428Z,97711.10
2018-01-25T23:11:40.776Z,97714.45
2018-01-25T23:14:09.107Z,97711.86
2018-01-25T23:16:37.431Z,97711.41
2018-01-25T23:19:05.771Z,97717.38
2018-01-25T23:21:34.108Z,97713.97
2018-01-25T23:24:02.449Z,97713.63
2018-01-25T23:26:30.807Z,97720.48
2018-01-25T23:28:59.155Z,97717.59
2018-01-25T23:31:27.537Z,97718.05
2018-01-25T23:33:55.880Z,97710.80
2018-01-25T23:36:24.209Z,97715.41
2018-01-25T23:38:52.559Z,97719.23
2018-01-25T23:41:20.896Z,97725.55
2018-01-25T23:43:49.239Z,97716.16
2018-01-25T23:46:17.592Z,97718.72
2018-01-25T23:48:45.923Z,97714.37
2018-01-25T23:51:14.242Z,97710.54
2018-01-25T23:53:42.580Z,97716.53
2018-01-25T23:56:10.924Z,97713.53
2018-01-25T23:58:39.276Z,97707.97
